createdAt,value
2022-12-08T00:00:32.994Z,2.71
2022-12-08T00:03:02.836Z,2.65
2022-12-08T00:05:52.877Z,2.70
2022-12-08T00:08:34.879Z,2.72
2022-12-08T00:11:04.478Z,2.72
2022-12-08T00:13:34.071Z,2.71
2022-12-08T00:16:04.192Z,2.78
2022-12-08T00:18:33.940Z,2.80
2022-12-08T00:21:06.346Z,2.78
2022-12-08T00:23:36.168Z,2.78
2022-12-08T00:26:06.594Z,2.70
2022-12-08T00:28:37.435Z,2.74
2022-12-08T00:31:11.100Z,2.72
2022-12-08T00:33:40.944Z,2.70
2022-12-08T00:36:15.711Z,2.74
2022-12-08T00:38:47.216Z,2.76
2022-12-08T00:41:18.686Z,2.66
2022-12-08T00:43:48.294Z,2.72
2022-12-08T00:46:17.843Z,2.68
2022-12-08T00:48:47.439Z,2.74
2022-12-08T00:51:19.553Z,2.59
2022-12-08T00:53:49.147Z,2.78
2022-12-08T00:56:18.651Z,2.74
2022-12-08T00:58:48.153Z,2.74
2022-12-08T01:01:17.965Z,2.75
2022-12-08T01:03:47.964Z,2.65
2022-12-08T01:06:20.546Z,2.72
2022-12-08T01:08:50.045Z,2.72
2022-12-08T01:11:21.567Z,2.66
2022-12-08T01:13:51.154Z,2.68
2022-12-08T01:16:24.348Z,2.71
2022-12-08T01:18:54.292Z,2.68
2022-12-08T01:21:26.775Z,2.69
2022-12-08T01:23:58.094Z,2.67
2022-12-08T01:26:27.590Z,2.65
2022-12-08T01:28:57.369Z,2.64
2022-12-08T01:31:26.954Z,2.69
2022-12-08T01:33:56.486Z,2.74
2022-12-08T01:36:30.957Z,2.71
2022-12-08T01:39:02.055Z,2.76
2022-12-08T01:41:33.442Z,2.78
2022-12-08T01:44:05.500Z,2.80
2022-12-08T01:46:36.589Z,2.82
2022-12-08T01:49:12.076Z,2.80
2022-12-08T01:51:50.769Z,2.85
2022-12-08T01:54:21.291Z,2.84
2022-12-08T01:57:00.854Z,2.85
2022-12-08T01:59:33.313Z,2.87
2022-12-08T02:02:02.955Z,2.89
2022-12-08T02:04:32.486Z,2.90
2022-12-08T02:07:08.131Z,2.93
2022-12-08T02:09:39.387Z,2.98
2022-12-08T02:12:10.220Z,2.89
2022-12-08T02:14:39.765Z,2.87
2022-12-08T02:17:19.571Z,2.89
2022-12-08T02:20:16.804Z,2.87
2022-12-08T02:22:57.541Z,2.77
2022-12-08T02:25:34.261Z,2.91
2022-12-08T02:28:18.700Z,2.75
2022-12-08T02:30:53.709Z,2.75
2022-12-08T02:34:03.102Z,2.72
2022-12-08T02:36:40.016Z,2.74
2022-12-08T02:39:22.470Z,2.68
2022-12-08T02:41:59.437Z,2.54
2022-12-08T02:44:35.637Z,2.60
2022-12-08T02:47:11.273Z,2.61
2022-12-08T02:49:43.547Z,2.56
2022-12-08T02:52:43.029Z,2.50
2022-12-08T02:55:21.275Z,2.41
2022-12-08T02:58:24.317Z,2.45
2022-12-08T03:01:05.185Z,2.46
2022-12-08T03:03:44.308Z,2.43
2022-12-08T03:06:28.600Z,2.45
2022-12-08T03:09:03.033Z,2.35
2022-12-08T03:11:41.064Z,2.42
2022-12-08T03:14:13.333Z,2.41
2022-12-08T03:16:47.795Z,2.27
2022-12-08T03:19:21.498Z,2.42
2022-12-08T03:22:03.179Z,2.39
2022-12-08T03:24:35.785Z,2.38
2022-12-08T03:27:09.297Z,2.42
2022-12-08T03:29:38.924Z,2.40
2022-12-08T03:32:14.759Z,2.38
2022-12-08T03:34:49.917Z,2.40
2022-12-08T03:37:23.005Z,2.41
2022-12-08T03:39:52.749Z,2.40
2022-12-08T03:42:22.227Z,2.42
2022-12-08T03:44:51.752Z,2.43
2022-12-08T03:47:21.421Z,2.43
2022-12-08T03:49:50.938Z,2.50
2022-12-08T03:52:23.073Z,2.49
2022-12-08T03:54:52.649Z,2.49
2022-12-08T03:57:22.153Z,2.46
2022-12-08T03:59:51.691Z,2.48
2022-12-08T04:02:21.379Z,2.50
2022-12-08T04:04:51.072Z,2.53
2022-12-08T04:07:23.343Z,2.47
2022-12-08T04:09:52.835Z,2.43
2022-12-08T04:12:22.413Z,2.42
2022-12-08T04:14:52.024Z,2.43
2022-12-08T04:17:21.545Z,2.39
2022-12-08T04:19:51.052Z,2.41
2022-12-08T04:22:23.294Z,2.36
2022-12-08T04:24:52.943Z,2.37
2022-12-08T04:27:22.454Z,2.27
2022-12-08T04:29:51.942Z,2.35
2022-12-08T04:32:21.471Z,2.40
2022-12-08T04:34:51.140Z,2.43
2022-12-08T04:37:23.265Z,2.48
2022-12-08T04:39:53.064Z,2.46
2022-12-08T04:42:22.572Z,2.43
2022-12-08T04:44:52.072Z,2.46
2022-12-08T04:47:22.282Z,2.42
2022-12-08T04:49:52.077Z,2.41
2022-12-08T04:52:24.297Z,2.47
2022-12-08T04:54:53.838Z,2.40
2022-12-08T04:57:23.419Z,2.48
2022-12-08T04:59:52.968Z,2.47
2022-12-08T05:02:22.776Z,2.46
2022-12-08T05:04:52.370Z,2.45
2022-12-08T05:07:24.591Z,2.48
2022-12-08T05:09:54.226Z,2.54
2022-12-08T05:12:23.754Z,2.44
2022-12-08T05:14:53.233Z,2.39
2022-12-08T05:17:22.698Z,2.39
2022-12-08T05:19:52.242Z,2.42
2022-12-08T05:22:24.568Z,2.41
2022-12-08T05:24:54.207Z,2.43
2022-12-08T05:27:23.804Z,2.41
2022-12-08T05:29:53.262Z,2.41
2022-12-08T05:32:22.846Z,2.36
2022-12-08T05:34:52.438Z,2.40
2022-12-08T05:37:24.593Z,2.47
2022-12-08T05:39:54.147Z,2.43
2022-12-08T05:42:25.060Z,2.40
2022-12-08T05:44:55.222Z,2.36
2022-12-08T05:47:24.806Z,2.38
2022-12-08T05:49:54.426Z,2.34
2022-12-08T05:52:28.291Z,2.30
2022-12-08T05:54:58.082Z,2.36
2022-12-08T05:57:27.575Z,2.34
2022-12-08T05:59:59.522Z,2.38
2022-12-08T06:02:29.532Z,2.43
2022-12-08T06:04:59.155Z,2.44
2022-12-08T06:07:31.294Z,2.35
2022-12-08T06:10:00.990Z,2.40
2022-12-08T06:12:30.683Z,2.48
2022-12-08T06:15:00.227Z,2.49
2022-12-08T06:17:29.755Z,2.49
2022-12-08T06:19:59.224Z,2.41
2022-12-08T06:22:31.495Z,2.47
2022-12-08T06:25:01.919Z,2.52
2022-12-08T06:27:33.640Z,2.59
2022-12-08T06:30:03.567Z,2.60
2022-12-08T06:32:33.477Z,2.54
2022-12-08T06:35:03.079Z,2.61
2022-12-08T06:37:35.251Z,2.62
2022-12-08T06:40:05.139Z,2.66
2022-12-08T06:42:47.227Z,2.67
2022-12-08T06:45:18.785Z,2.73
2022-12-08T06:47:48.371Z,2.71
2022-12-08T06:50:17.985Z,2.73
2022-12-08T06:53:01.016Z,2.80
2022-12-08T06:55:57.716Z,2.77
2022-12-08T06:58:24.264Z,2.82
2022-12-08T07:00:53.881Z,2.78
2022-12-08T07:03:23.687Z,2.77
2022-12-08T07:05:53.281Z,2.88
2022-12-08T07:08:26.010Z,2.82
2022-12-08T07:10:55.571Z,2.86
2022-12-08T07:13:25.150Z,2.85
2022-12-08T07:15:54.917Z,2.85
2022-12-08T07:18:24.421Z,2.83
2022-12-08T07:20:54.018Z,2.83
2022-12-08T07:23:26.146Z,2.74
2022-12-08T07:25:55.670Z,2.81
2022-12-08T07:28:25.163Z,2.81
2022-12-08T07:30:54.836Z,2.80
2022-12-08T07:33:24.794Z,2.77
2022-12-08T07:35:58.202Z,2.72
2022-12-08T07:38:31.222Z,2.68
2022-12-08T07:41:00.878Z,2.68
2022-12-08T07:43:30.618Z,2.61
2022-12-08T07:46:00.181Z,2.64
2022-12-08T07:48:30.854Z,2.66
2022-12-08T07:51:04.146Z,2.63
2022-12-08T07:53:36.604Z,2.59
2022-12-08T07:56:09.207Z,2.66
2022-12-08T07:58:38.803Z,2.71
2022-12-08T08:01:09.139Z,2.67
2022-12-08T08:03:39.298Z,2.69
2022-12-08T08:06:09.322Z,2.71
2022-12-08T08:08:41.448Z,2.69
2022-12-08T08:11:18.992Z,2.68
2022-12-08T08:13:50.758Z,2.70
2022-12-08T08:16:21.990Z,2.68
2022-12-08T08:18:52.712Z,2.64
2022-12-08T08:24:15.788Z,2.71
2022-12-08T08:26:45.340Z,2.65
2022-12-08T08:29:14.915Z,2.75
2022-12-08T08:31:44.559Z,2.72
2022-12-08T08:34:14.162Z,2.74
2022-12-08T08:36:43.762Z,2.76
2022-12-08T08:39:16.067Z,2.74
2022-12-08T08:41:45.594Z,2.78
2022-12-08T08:44:17.100Z,2.80
2022-12-08T08:46:46.751Z,2.88
2022-12-08T08:49:16.347Z,2.78
2022-12-08T08:51:46.314Z,2.88
2022-12-08T08:54:18.477Z,2.88
2022-12-08T08:56:48.301Z,2.87
2022-12-08T08:59:17.925Z,2.92
2022-12-08T09:01:47.598Z,2.91
2022-12-08T09:04:17.252Z,2.96
2022-12-08T09:06:48.202Z,2.97
2022-12-08T09:09:20.529Z,2.98
2022-12-08T09:11:50.076Z,2.98
2022-12-08T09:14:19.601Z,2.96
2022-12-08T09:16:49.190Z,2.98
2022-12-08T09:19:18.889Z,2.96
2022-12-08T09:21:48.443Z,2.97
2022-12-08T09:24:20.652Z,3.04
2022-12-08T09:26:50.190Z,3.01
2022-12-08T09:29:19.986Z,3.04
2022-12-08T09:31:49.960Z,3.05
2022-12-08T09:34:19.647Z,3.03
2022-12-08T09:36:49.169Z,3.02
2022-12-08T09:39:21.298Z,3.02
2022-12-08T09:41:53.811Z,2.94
2022-12-08T09:44:44.243Z,2.94
2022-12-08T09:47:20.800Z,2.88
2022-12-08T09:49:57.585Z,2.88
2022-12-08T09:52:30.754Z,2.89
2022-12-08T09:55:07.483Z,2.97
2022-12-08T09:57:37.171Z,2.77
2022-12-08T10:00:09.343Z,2.84
2022-12-08T10:02:38.913Z,2.88
2022-12-08T10:05:09.770Z,2.92
2022-12-08T10:07:45.637Z,2.94
2022-12-08T10:10:29.018Z,2.92
2022-12-08T10:13:07.109Z,2.92
2022-12-08T10:15:44.428Z,2.95
2022-12-08T10:18:18.071Z,2.93
2022-12-08T10:20:49.612Z,2.84
2022-12-08T10:23:27.698Z,2.96
2022-12-08T10:26:04.620Z,2.97
2022-12-08T10:28:41.363Z,2.98
2022-12-08T10:31:22.747Z,2.98
2022-12-08T10:33:58.140Z,2.97
2022-12-08T10:36:47.499Z,2.98
2022-12-08T10:39:37.087Z,2.98
2022-12-08T10:42:21.937Z,3.00
2022-12-08T10:45:00.697Z,2.99
2022-12-08T10:47:32.420Z,2.98
2022-12-08T10:50:22.336Z,3.10
2022-12-08T10:52:57.990Z,3.15
2022-12-08T10:55:27.684Z,3.14
2022-12-08T10:57:59.845Z,3.15
2022-12-08T11:00:31.178Z,3.20
2022-12-08T11:03:02.625Z,3.17
2022-12-08T11:05:36.837Z,3.23
2022-12-08T11:08:08.063Z,3.29
2022-12-08T11:10:45.157Z,3.22
2022-12-08T11:13:26.204Z,3.18
2022-12-08T11:15:57.918Z,3.16
2022-12-08T11:18:31.278Z,3.23
2022-12-08T11:21:03.797Z,3.28
2022-12-08T11:23:33.654Z,3.23
2022-12-08T11:26:09.927Z,3.25
2022-12-08T11:28:42.725Z,3.31
2022-12-08T11:31:25.511Z,3.25
2022-12-08T11:33:55.872Z,3.43
2022-12-08T11:36:29.403Z,3.51
2022-12-08T11:39:02.916Z,3.55
2022-12-08T11:41:37.137Z,3.46
2022-12-08T11:44:25.225Z,3.48
2022-12-08T11:46:59.907Z,3.46
2022-12-08T11:49:37.349Z,3.55
2022-12-08T11:52:14.737Z,3.52
2022-12-08T11:54:50.765Z,3.51
2022-12-08T11:57:20.959Z,3.33
2022-12-08T11:59:54.821Z,3.28
2022-12-08T12:02:27.302Z,3.24
2022-12-08T12:05:00.943Z,3.23
2022-12-08T12:07:43.495Z,3.28
2022-12-08T12:10:28.335Z,3.24
2022-12-08T12:13:11.738Z,3.32
2022-12-08T12:16:19.419Z,3.30
2022-12-08T12:18:53.788Z,3.33
2022-12-08T12:21:29.460Z,3.28
2022-12-08T12:24:03.157Z,3.25
2022-12-08T12:26:36.403Z,3.21
2022-12-08T12:29:09.618Z,3.22
2022-12-08T12:31:44.668Z,3.15
2022-12-08T12:34:19.988Z,3.14
2022-12-08T12:36:52.708Z,3.21
2022-12-08T12:39:25.155Z,3.30
2022-12-08T12:41:56.888Z,3.22
2022-12-08T12:44:50.598Z,3.22
2022-12-08T12:47:54.272Z,3.18
2022-12-08T12:50:46.098Z,3.23
2022-12-08T12:53:52.079Z,3.32
2022-12-08T12:56:53.263Z,3.54
2022-12-08T12:59:47.852Z,3.74
2022-12-08T13:02:23.309Z,3.95
2022-12-08T13:05:02.221Z,3.95
2022-12-08T13:07:35.814Z,3.95
2022-12-08T13:10:14.263Z,4.00
2022-12-08T13:12:44.331Z,3.77
2022-12-08T13:15:21.600Z,3.86
2022-12-08T13:17:52.237Z,3.88
2022-12-08T13:20:27.768Z,3.92
2022-12-08T13:23:21.567Z,3.79
2022-12-08T13:26:10.852Z,3.94
2022-12-08T13:29:15.782Z,3.79
2022-12-08T13:31:50.918Z,3.69
2022-12-08T13:34:25.783Z,3.70
2022-12-08T13:37:11.073Z,3.62
2022-12-08T13:39:47.650Z,3.64
2022-12-08T13:42:24.995Z,3.60
2022-12-08T13:57:02.484Z,3.51
2022-12-08T13:59:30.729Z,3.55
2022-12-08T14:02:04.065Z,3.54
2022-12-08T14:04:54.337Z,3.42
2022-12-08T14:07:24.640Z,3.44
2022-12-08T14:09:57.059Z,3.38
2022-12-08T14:12:28.611Z,3.46
2022-12-08T14:15:04.186Z,3.41
2022-12-08T14:17:35.184Z,3.41
2022-12-08T14:20:07.317Z,3.30
2022-12-08T14:22:38.353Z,3.41
2022-12-08T14:25:16.670Z,3.45
2022-12-08T14:27:46.938Z,3.39
2022-12-08T14:30:23.874Z,3.40
2022-12-08T14:33:01.412Z,3.37
2022-12-08T14:35:32.718Z,3.33
2022-12-08T14:38:04.639Z,3.38
2022-12-08T14:40:38.701Z,3.24
2022-12-08T14:43:17.757Z,3.22
2022-12-08T14:45:53.621Z,3.29
2022-12-08T14:48:29.003Z,3.27
2022-12-08T14:51:04.550Z,3.30
2022-12-08T14:53:41.148Z,3.18
2022-12-08T14:56:21.651Z,3.21
2022-12-08T14:58:53.085Z,3.19
2022-12-08T15:01:26.404Z,3.16
2022-12-08T15:03:56.477Z,3.15
2022-12-08T15:06:25.983Z,3.12
2022-12-08T15:08:58.886Z,3.14
2022-12-08T15:11:35.099Z,3.08
2022-12-08T15:14:04.767Z,3.12
2022-12-08T15:16:41.417Z,3.14
2022-12-08T15:19:28.438Z,3.01
2022-12-08T15:22:00.039Z,2.96
2022-12-08T15:24:32.388Z,2.99
2022-12-08T15:27:06.705Z,2.98
2022-12-08T15:29:36.403Z,2.96
2022-12-08T15:32:13.470Z,2.95
2022-12-08T15:34:42.973Z,2.87
2022-12-08T15:37:22.674Z,2.89
2022-12-08T15:39:52.867Z,2.90
2022-12-08T15:42:25.079Z,2.88
2022-12-08T15:44:54.617Z,2.90
2022-12-08T15:47:26.618Z,2.91
2022-12-08T15:49:56.266Z,2.83
2022-12-08T15:52:27.631Z,2.84
2022-12-08T15:54:57.514Z,2.85
2022-12-08T15:58:17.478Z,2.82
2022-12-08T16:09:18.333Z,2.72
2022-12-08T16:12:09.872Z,2.65
2022-12-08T16:17:36.559Z,2.63
2022-12-08T16:20:07.424Z,2.60
2022-12-08T16:22:59.713Z,2.59
2022-12-08T16:25:36.383Z,2.64
2022-12-08T16:28:52.293Z,2.60
2022-12-08T16:31:13.387Z,2.62
2022-12-08T16:33:44.557Z,2.61
2022-12-08T16:36:14.158Z,2.63
2022-12-08T16:38:43.915Z,2.66
2022-12-08T16:41:29.614Z,2.61
2022-12-08T16:44:03.566Z,2.59
2022-12-08T16:46:37.122Z,2.64
2022-12-08T16:49:10.558Z,2.69
2022-12-08T16:51:40.259Z,2.67
2022-12-08T16:54:09.774Z,2.62
2022-12-08T16:56:39.542Z,2.57
2022-12-08T16:59:09.057Z,2.69
2022-12-08T17:01:41.364Z,2.66
2022-12-08T17:07:01.109Z,2.80
2022-12-08T17:09:31.234Z,2.85
2022-12-08T17:12:03.972Z,2.87
2022-12-08T17:14:36.182Z,2.69
2022-12-08T17:17:08.964Z,2.82
2022-12-08T17:19:38.599Z,2.77
2022-12-08T17:22:08.217Z,2.76
2022-12-08T17:24:37.825Z,2.78
2022-12-08T17:27:07.492Z,2.75
2022-12-08T17:29:37.849Z,2.83
2022-12-08T17:32:10.264Z,2.82
2022-12-08T17:34:40.138Z,2.79
2022-12-08T17:37:09.707Z,2.81
2022-12-08T17:39:41.127Z,2.68
2022-12-08T17:42:11.049Z,2.69
2022-12-08T17:44:40.819Z,2.70
2022-12-08T17:47:13.001Z,2.66
2022-12-08T17:49:42.612Z,2.68
2022-12-08T17:52:13.695Z,2.67
2022-12-08T17:54:43.382Z,2.68
2022-12-08T17:57:12.935Z,2.76
2022-12-08T17:59:42.518Z,2.79
2022-12-08T18:02:15.250Z,2.77
2022-12-08T18:04:44.814Z,2.70
2022-12-08T18:07:14.392Z,2.71
2022-12-08T18:09:43.985Z,2.68
2022-12-08T18:12:13.547Z,2.66
2022-12-08T18:14:43.256Z,2.72
2022-12-08T18:17:15.629Z,2.72
2022-12-08T18:19:45.229Z,2.66
2022-12-08T18:22:16.060Z,2.60
2022-12-08T18:24:47.718Z,2.61
2022-12-08T18:27:17.283Z,2.64
2022-12-08T18:29:46.826Z,2.64
2022-12-08T18:32:22.789Z,2.74
2022-12-08T18:34:52.768Z,2.74
2022-12-08T18:37:22.639Z,2.72
2022-12-08T18:39:52.375Z,2.77
2022-12-08T18:42:28.388Z,2.71
2022-12-08T18:45:02.926Z,2.55
2022-12-08T18:47:36.673Z,2.69
2022-12-08T18:50:07.813Z,2.72
2022-12-08T18:52:37.888Z,2.76
2022-12-08T18:55:08.640Z,2.75
2022-12-08T18:57:40.060Z,2.70
2022-12-08T19:00:12.915Z,2.85
2022-12-08T19:02:45.249Z,2.79
2022-12-08T19:05:16.644Z,2.82
2022-12-08T19:07:46.664Z,2.86
2022-12-08T19:10:16.428Z,2.85
2022-12-08T19:12:46.020Z,2.81
2022-12-08T19:15:15.594Z,2.73
2022-12-08T19:17:47.778Z,2.74
2022-12-08T19:20:17.462Z,2.65
2022-12-08T19:22:47.078Z,2.60
2022-12-08T19:25:16.652Z,2.64
2022-12-08T19:27:46.275Z,2.59
2022-12-08T19:30:17.134Z,2.54
2022-12-08T19:32:49.313Z,2.38
2022-12-08T19:35:19.350Z,2.45
2022-12-08T19:37:48.998Z,2.37
2022-12-08T19:40:31.278Z,2.24
2022-12-08T19:43:13.343Z,2.18
2022-12-08T19:45:43.081Z,2.10
2022-12-08T19:48:15.343Z,2.09
2022-12-08T19:50:45.032Z,2.03
2022-12-08T19:53:17.581Z,2.02
2022-12-08T19:55:47.433Z,1.99
2022-12-08T19:58:16.957Z,1.95
2022-12-08T20:00:47.372Z,2.01
2022-12-08T20:03:21.870Z,1.98
2022-12-08T20:05:53.098Z,1.90
2022-12-08T20:08:22.671Z,1.84
2022-12-08T20:10:56.071Z,1.71
2022-12-08T20:13:40.517Z,1.65
2022-12-08T20:16:11.494Z,1.67
2022-12-08T20:18:44.909Z,1.73
2022-12-08T20:21:15.493Z,1.74
2022-12-08T20:23:45.553Z,1.64
2022-12-08T20:26:17.997Z,1.68
2022-12-08T20:28:47.601Z,1.69
2022-12-08T20:31:21.965Z,1.65
2022-12-08T20:33:54.836Z,1.55
2022-12-08T20:36:25.560Z,1.58
2022-12-08T20:38:56.579Z,1.55
2022-12-08T20:41:26.369Z,1.56
2022-12-08T20:43:56.106Z,1.53
2022-12-08T20:46:25.748Z,1.46
2022-12-08T20:49:01.343Z,1.45
2022-12-08T20:51:36.729Z,1.41
2022-12-08T20:54:17.939Z,1.46
2022-12-08T20:56:48.756Z,1.47
2022-12-08T20:59:20.516Z,1.44
2022-12-08T21:01:50.262Z,1.44
2022-12-08T21:04:23.999Z,1.46
2022-12-08T21:06:56.050Z,1.40
2022-12-08T21:09:31.461Z,1.42
2022-12-08T21:12:03.141Z,1.18
2022-12-08T21:14:33.208Z,1.27
2022-12-08T21:17:07.751Z,1.25
2022-12-08T21:19:41.488Z,1.25
2022-12-08T21:22:11.399Z,1.32
2022-12-08T21:24:41.043Z,1.23
2022-12-08T21:27:11.061Z,1.18
2022-12-08T21:29:40.817Z,1.08
2022-12-08T21:32:10.835Z,1.10
2022-12-08T21:34:44.335Z,1.05
2022-12-08T21:37:14.252Z,0.99
2022-12-08T21:39:43.820Z,1.03
2022-12-08T21:42:33.866Z,1.00
2022-12-08T21:45:04.261Z,0.92
2022-12-08T21:47:34.182Z,0.92
2022-12-08T21:50:07.401Z,0.88
2022-12-08T21:52:40.130Z,0.83
2022-12-08T21:55:11.344Z,0.76
2022-12-08T21:57:42.083Z,0.68
2022-12-08T22:00:16.640Z,0.71
2022-12-08T22:02:47.088Z,0.68
2022-12-08T22:05:19.924Z,0.66
2022-12-08T22:07:49.597Z,0.65
2022-12-08T22:10:21.145Z,0.62
2022-12-08T22:12:50.751Z,0.61
2022-12-08T22:15:20.505Z,0.58
2022-12-08T22:17:50.367Z,0.58
2022-12-08T22:20:22.765Z,0.57
2022-12-08T22:22:52.449Z,0.54
2022-12-08T22:25:22.266Z,0.52
2022-12-08T22:27:52.025Z,0.51
2022-12-08T22:30:21.781Z,0.48
2022-12-08T22:32:51.630Z,0.34
2022-12-08T22:35:24.065Z,0.32
2022-12-08T22:37:53.786Z,0.30
2022-12-08T22:40:23.519Z,0.27
2022-12-08T22:42:53.276Z,0.25
2022-12-08T22:45:22.963Z,0.31
2022-12-08T22:47:52.841Z,0.26
2022-12-08T22:50:25.163Z,0.31
2022-12-08T22:52:54.805Z,0.28
2022-12-08T22:55:24.641Z,0.23
2022-12-08T22:57:54.264Z,0.18
2022-12-08T23:00:24.549Z,0.12
2022-12-08T23:02:54.291Z,0.17
2022-12-08T23:05:26.801Z,0.15
2022-12-08T23:07:56.639Z,0.16
2022-12-08T23:10:26.216Z,0.11
2022-12-08T23:12:59.248Z,0.10
2022-12-08T23:15:31.868Z,0.03
2022-12-08T23:18:01.531Z,0.15
2022-12-08T23:20:33.946Z,0.14
2022-12-08T23:23:03.690Z,0.15
2022-12-08T23:25:33.275Z,0.12
2022-12-08T23:28:02.940Z,0.10
2022-12-08T23:30:32.559Z,0.12
2022-12-08T23:33:02.181Z,-0.01
2022-12-08T23:35:34.335Z,0.09
2022-12-08T23:38:04.232Z,0.07
2022-12-08T23:40:34.237Z,0.13
2022-12-08T23:43:03.948Z,0.11
2022-12-08T23:45:33.622Z,-0.06
2022-12-08T23:48:03.203Z,-0.01
2022-12-08T23:50:35.552Z,0.01
2022-12-08T23:53:05.380Z,-0.08
2022-12-08T23:55:34.978Z,-0.03
2022-12-08T23:58:04.695Z,-0.06
